KLM39J EHAM-LDSP
Flight info
| Callsign | KLM39J |
|---|---|
| Flight time | 1h 47m |
| Altitude | 39000 |
| Route | EDUPO Z739 MISGO DCT DOJOH DCT DODEN DCT NEGIX DCT DINKU M867 XERUM DCT BAVAX DCT RADIZ/N0443F350 DCT ALIVO DCT NUPSO |
| Aircraft | B738/M-SDE2E3FGHIRWXY/LB1 |
Departure
| Time | 2026-04-27 08:12 |
|---|---|
| Airport | Amsterdam Airport Schiphol (EHAM) |
Arrival
| Time | 2026-04-27 10:00 |
|---|---|
| Airport | Split Saint Jerome Airport (LDSP) |
| Time | Latitude | Longitude | Altitude | Speed | Heading |
|---|---|---|---|---|---|
| 2026-04-27 07:15 | 52.30512 | 4.76261 | -2 ft | 0 kts | 238° |
| 2026-04-27 07:53 | 52.30521 | 4.76290 | -2 ft | 4 kts | 250° |
| 2026-04-27 07:54 | 52.30530 | 4.76330 | -2 ft | 4 kts | 234° |
| 2026-04-27 07:54 | 52.30539 | 4.76345 | -2 ft | 1 kts | 204° |
| 2026-04-27 07:58 | 52.30537 | 4.76344 | -2 ft | 1 kts | 198° |
| 2026-04-27 07:58 | 52.30521 | 4.76352 | -2 ft | 4 kts | 156° |
| 2026-04-27 07:58 | 52.30482 | 4.76389 | -2 ft | 8 kts | 148° |
| 2026-04-27 07:58 | 52.30431 | 4.76441 | -2 ft | 9 kts | 148° |
| 2026-04-27 07:59 | 52.30379 | 4.76494 | -2 ft | 0 kts | 148° |
| 2026-04-27 08:00 | 52.30377 | 4.76496 | -2 ft | 2 kts | 148° |
| 2026-04-27 08:00 | 52.30354 | 4.76521 | -2 ft | 6 kts | 143° |
| 2026-04-27 08:00 | 52.30334 | 4.76607 | -2 ft | 10 kts | 79° |
| 2026-04-27 08:00 | 52.30322 | 4.76733 | -2 ft | 13 kts | 126° |
| 2026-04-27 08:01 | 52.30333 | 4.76876 | -2 ft | 14 kts | 57° |
| 2026-04-27 08:01 | 52.30389 | 4.77021 | -2 ft | 16 kts | 57° |
| 2026-04-27 08:01 | 52.30448 | 4.77173 | -2 ft | 16 kts | 58° |
| 2026-04-27 08:01 | 52.30505 | 4.77323 | -2 ft | 15 kts | 58° |
| 2026-04-27 08:02 | 52.30561 | 4.77468 | -2 ft | 15 kts | 58° |
| 2026-04-27 08:02 | 52.30642 | 4.77582 | -2 ft | 16 kts | 14° |
| 2026-04-27 08:02 | 52.30755 | 4.77595 | -2 ft | 16 kts | 3° |
| 2026-04-27 08:02 | 52.30865 | 4.77606 | -2 ft | 16 kts | 4° |
| 2026-04-27 08:03 | 52.30971 | 4.77616 | -2 ft | 15 kts | 3° |
| 2026-04-27 08:03 | 52.31073 | 4.77624 | -2 ft | 14 kts | 2° |
| 2026-04-27 08:03 | 52.31170 | 4.77634 | -2 ft | 14 kts | 4° |
| 2026-04-27 08:03 | 52.31263 | 4.77642 | -2 ft | 13 kts | 2° |
| 2026-04-27 08:04 | 52.31353 | 4.77644 | -2 ft | 13 kts | 360° |
| 2026-04-27 08:04 | 52.31440 | 4.77637 | -2 ft | 12 kts | 349° |
| 2026-04-27 08:04 | 52.31510 | 4.77563 | -2 ft | 12 kts | 310° |
| 2026-04-27 08:04 | 52.31561 | 4.77456 | -2 ft | 12 kts | 299° |
| 2026-04-27 08:05 | 52.31574 | 4.77304 | -2 ft | 15 kts | 267° |
| 2026-04-27 08:05 | 52.31569 | 4.77115 | -2 ft | 18 kts | 267° |
| 2026-04-27 08:05 | 52.31561 | 4.76895 | -2 ft | 21 kts | 266° |
| 2026-04-27 08:05 | 52.31551 | 4.76646 | -2 ft | 23 kts | 268° |
| 2026-04-27 08:06 | 52.31544 | 4.76379 | -2 ft | 24 kts | 266° |
| 2026-04-27 08:06 | 52.31534 | 4.76110 | -2 ft | 23 kts | 267° |
| 2026-04-27 08:06 | 52.31525 | 4.75853 | -2 ft | 22 kts | 266° |
| 2026-04-27 08:06 | 52.31517 | 4.75602 | -2 ft | 22 kts | 267° |
| 2026-04-27 08:07 | 52.31508 | 4.75358 | -2 ft | 23 kts | 266° |
| 2026-04-27 08:07 | 52.31500 | 4.75097 | -2 ft | 23 kts | 267° |
| 2026-04-27 08:07 | 52.31491 | 4.74832 | -2 ft | 24 kts | 266° |
| 2026-04-27 08:07 | 52.31481 | 4.74555 | -2 ft | 24 kts | 266° |
| 2026-04-27 08:08 | 52.31475 | 4.74418 | -2 ft | 1 kts | 264° |
| 2026-04-27 08:08 | 52.31473 | 4.74384 | -2 ft | 7 kts | 268° |
| 2026-04-27 08:08 | 52.31467 | 4.74250 | -2 ft | 14 kts | 257° |
| 2026-04-27 08:08 | 52.31402 | 4.74143 | -2 ft | 14 kts | 191° |
| 2026-04-27 08:09 | 52.31298 | 4.74130 | -2 ft | 16 kts | 182° |
| 2026-04-27 08:09 | 52.31181 | 4.74119 | -2 ft | 18 kts | 182° |
| 2026-04-27 08:09 | 52.31051 | 4.74109 | -2 ft | 20 kts | 182° |
| 2026-04-27 08:09 | 52.30909 | 4.74095 | -2 ft | 21 kts | 184° |
| 2026-04-27 08:10 | 52.30757 | 4.74082 | -2 ft | 23 kts | 181° |
| 2026-04-27 08:10 | 52.30598 | 4.74068 | -2 ft | 23 kts | 183° |
| 2026-04-27 08:10 | 52.30473 | 4.74059 | -2 ft | 14 kts | 181° |
| 2026-04-27 08:10 | 52.30409 | 4.73993 | -2 ft | 10 kts | 250° |
| 2026-04-27 08:11 | 52.30408 | 4.73882 | -3 ft | 10 kts | 273° |
| 2026-04-27 08:11 | 52.30413 | 4.73783 | -4 ft | 6 kts | 288° |
| 2026-04-27 08:11 | 52.30446 | 4.73757 | -4 ft | 6 kts | 6° |
| 2026-04-27 08:11 | 52.30485 | 4.73762 | -4 ft | 6 kts | 4° |
| 2026-04-27 08:12 | 52.30527 | 4.73766 | -4 ft | 6 kts | 3° |
| 2026-04-27 08:12 | 52.30688 | 4.73782 | -3 ft | 62 kts | 3° |
| 2026-04-27 08:12 | 52.31429 | 4.73855 | -1 ft | 148 kts | 2° |
| 2026-04-27 08:12 | 52.32580 | 4.73933 | 648 ft | 171 kts | 5° |
| 2026-04-27 08:13 | 52.33757 | 4.74145 | 1692 ft | 170 kts | 14° |
| 2026-04-27 08:13 | 52.34939 | 4.74810 | 2479 ft | 196 kts | 23° |
| 2026-04-27 08:13 | 52.36298 | 4.75778 | 2922 ft | 227 kts | 24° |
| 2026-04-27 08:13 | 52.37746 | 4.76901 | 3787 ft | 232 kts | 33° |
| 2026-04-27 08:14 | 52.39015 | 4.78683 | 4343 ft | 251 kts | 45° |
| 2026-04-27 08:14 | 52.40236 | 4.80788 | 5139 ft | 263 kts | 46° |
| 2026-04-27 08:14 | 52.41481 | 4.82997 | 6143 ft | 267 kts | 51° |
| 2026-04-27 08:14 | 52.42298 | 4.85750 | 6995 ft | 275 kts | 77° |
| 2026-04-27 08:15 | 52.42442 | 4.88894 | 7911 ft | 279 kts | 89° |
| 2026-04-27 08:15 | 52.42435 | 4.92109 | 8795 ft | 285 kts | 89° |
| 2026-04-27 08:15 | 52.42419 | 4.95393 | 9689 ft | 291 kts | 93° |
| 2026-04-27 08:15 | 52.41890 | 4.98599 | 10528 ft | 296 kts | 119° |
| 2026-04-27 08:16 | 52.40527 | 5.01232 | 10944 ft | 317 kts | 143° |
| 2026-04-27 08:16 | 52.38651 | 5.03394 | 11245 ft | 340 kts | 147° |
| 2026-04-27 08:16 | 52.36665 | 5.05601 | 11900 ft | 349 kts | 147° |
| 2026-04-27 08:16 | 52.34659 | 5.07867 | 12759 ft | 352 kts | 146° |
| 2026-04-27 08:17 | 52.32719 | 5.10339 | 13578 ft | 358 kts | 137° |
| 2026-04-27 08:17 | 52.31034 | 5.13372 | 14367 ft | 363 kts | 132° |
| 2026-04-27 08:17 | 52.29383 | 5.16534 | 15077 ft | 368 kts | 132° |
| 2026-04-27 08:17 | 52.27690 | 5.19719 | 15763 ft | 374 kts | 133° |
| 2026-04-27 08:18 | 52.25947 | 5.22917 | 16453 ft | 379 kts | 133° |
| 2026-04-27 08:18 | 52.24180 | 5.26155 | 17162 ft | 384 kts | 131° |
| 2026-04-27 08:18 | 52.22531 | 5.29634 | 17853 ft | 390 kts | 127° |
| 2026-04-27 08:18 | 52.20959 | 5.33291 | 18534 ft | 396 kts | 126° |
| 2026-04-27 08:19 | 52.19395 | 5.37020 | 19126 ft | 401 kts | 126° |
| 2026-04-27 08:19 | 52.17870 | 5.40639 | 19722 ft | 404 kts | 126° |
| 2026-04-27 08:19 | 52.16257 | 5.44419 | 20342 ft | 408 kts | 127° |
| 2026-04-27 08:19 | 52.14617 | 5.48213 | 20940 ft | 411 kts | 127° |
| 2026-04-27 08:20 | 52.12953 | 5.52033 | 21533 ft | 415 kts | 127° |
| 2026-04-27 08:20 | 52.11291 | 5.55833 | 22104 ft | 419 kts | 127° |
| 2026-04-27 08:20 | 52.09568 | 5.59767 | 22687 ft | 423 kts | 127° |
| 2026-04-27 08:20 | 52.07874 | 5.63625 | 23239 ft | 427 kts | 128° |
| 2026-04-27 08:21 | 52.06141 | 5.67558 | 23787 ft | 430 kts | 129° |
| 2026-04-27 08:21 | 52.04260 | 5.71363 | 24251 ft | 433 kts | 133° |
| 2026-04-27 08:21 | 52.02256 | 5.75034 | 24722 ft | 435 kts | 134° |
| 2026-04-27 08:21 | 52.00887 | 5.77510 | 25027 ft | 437 kts | 134° |
| 2026-04-27 08:22 | 51.98891 | 5.81175 | 25460 ft | 441 kts | 134° |
| 2026-04-27 08:22 | 51.96867 | 5.84943 | 25890 ft | 444 kts | 134° |
| 2026-04-27 08:22 | 51.94808 | 5.88786 | 26320 ft | 447 kts | 134° |
| 2026-04-27 08:22 | 51.92784 | 5.92560 | 26739 ft | 450 kts | 134° |
| 2026-04-27 08:23 | 51.90719 | 5.96401 | 27155 ft | 453 kts | 134° |
| 2026-04-27 08:23 | 51.88615 | 6.00311 | 27562 ft | 456 kts | 134° |
| 2026-04-27 08:23 | 51.86518 | 6.04196 | 27957 ft | 459 kts | 134° |
| 2026-04-27 08:23 | 51.84408 | 6.08092 | 28344 ft | 462 kts | 134° |
| 2026-04-27 08:24 | 51.82276 | 6.11997 | 28719 ft | 465 kts | 134° |
| 2026-04-27 08:24 | 51.80151 | 6.15879 | 29086 ft | 468 kts | 134° |
| 2026-04-27 08:24 | 51.77984 | 6.19833 | 29447 ft | 471 kts | 134° |
| 2026-04-27 08:24 | 51.75806 | 6.23807 | 29803 ft | 473 kts | 134° |
| 2026-04-27 08:25 | 51.73621 | 6.27795 | 30127 ft | 476 kts | 134° |
| 2026-04-27 08:25 | 51.71422 | 6.31807 | 30455 ft | 479 kts | 134° |
| 2026-04-27 08:25 | 51.69208 | 6.35845 | 30743 ft | 481 kts | 134° |
| 2026-04-27 08:25 | 51.66985 | 6.39894 | 31038 ft | 483 kts | 134° |
| 2026-04-27 08:26 | 51.64754 | 6.43948 | 31344 ft | 484 kts | 134° |
| 2026-04-27 08:26 | 51.62514 | 6.48007 | 31614 ft | 486 kts | 135° |
| 2026-04-27 08:26 | 51.60259 | 6.52087 | 31935 ft | 487 kts | 135° |
| 2026-04-27 08:26 | 51.58014 | 6.56145 | 32339 ft | 485 kts | 135° |
| 2026-04-27 08:27 | 51.55771 | 6.60193 | 32775 ft | 483 kts | 135° |
| 2026-04-27 08:27 | 51.53536 | 6.64222 | 33157 ft | 482 kts | 135° |
| 2026-04-27 08:27 | 51.51298 | 6.68250 | 33504 ft | 482 kts | 135° |
| 2026-04-27 08:27 | 51.49095 | 6.72208 | 33849 ft | 482 kts | 135° |
| 2026-04-27 08:28 | 51.46865 | 6.76211 | 34209 ft | 481 kts | 135° |
| 2026-04-27 08:28 | 51.44631 | 6.80215 | 34525 ft | 480 kts | 135° |
| 2026-04-27 08:28 | 51.42404 | 6.84198 | 34808 ft | 480 kts | 135° |
| 2026-04-27 08:28 | 51.40167 | 6.88159 | 35079 ft | 479 kts | 137° |
| 2026-04-27 08:29 | 51.37826 | 6.91967 | 35351 ft | 478 kts | 139° |
| 2026-04-27 08:29 | 51.35439 | 6.95674 | 35647 ft | 477 kts | 140° |
| 2026-04-27 08:29 | 51.33041 | 6.99332 | 35947 ft | 476 kts | 140° |
| 2026-04-27 08:29 | 51.30642 | 7.02981 | 36227 ft | 476 kts | 140° |
| 2026-04-27 08:30 | 51.28245 | 7.06636 | 36489 ft | 476 kts | 140° |
| 2026-04-27 08:30 | 51.25854 | 7.10299 | 36749 ft | 476 kts | 139° |
| 2026-04-27 08:30 | 51.23528 | 7.13873 | 37017 ft | 476 kts | 139° |
| 2026-04-27 08:30 | 51.21524 | 7.16957 | 37245 ft | 475 kts | 139° |
| 2026-04-27 08:31 | 51.19146 | 7.20615 | 37493 ft | 475 kts | 139° |
| 2026-04-27 08:31 | 51.16765 | 7.24275 | 37742 ft | 475 kts | 139° |
| 2026-04-27 08:31 | 51.14389 | 7.27921 | 38000 ft | 474 kts | 139° |
| 2026-04-27 08:31 | 51.12009 | 7.31566 | 38227 ft | 474 kts | 139° |
| 2026-04-27 08:32 | 51.09630 | 7.35204 | 38442 ft | 474 kts | 139° |
| 2026-04-27 08:32 | 51.07250 | 7.38836 | 38659 ft | 475 kts | 139° |
| 2026-04-27 08:32 | 51.04866 | 7.42469 | 38896 ft | 474 kts | 139° |
| 2026-04-27 08:32 | 51.02489 | 7.46087 | 39103 ft | 473 kts | 139° |
| 2026-04-27 08:33 | 51.00111 | 7.49702 | 39253 ft | 473 kts | 139° |
| 2026-04-27 08:33 | 50.97720 | 7.53328 | 39277 ft | 476 kts | 139° |
| 2026-04-27 08:33 | 50.92953 | 7.60545 | 39273 ft | 476 kts | 139° |
| 2026-04-27 08:34 | 50.88180 | 7.67754 | 39266 ft | 473 kts | 139° |
| 2026-04-27 08:34 | 50.83421 | 7.74917 | 39267 ft | 470 kts | 139° |
| 2026-04-27 08:35 | 50.78671 | 7.81996 | 39266 ft | 468 kts | 140° |
| 2026-04-27 08:35 | 50.73921 | 7.89036 | 39269 ft | 468 kts | 140° |
| 2026-04-27 08:36 | 50.69167 | 7.96072 | 39276 ft | 469 kts | 140° |
| 2026-04-27 08:36 | 50.64402 | 8.03110 | 39266 ft | 470 kts | 140° |
| 2026-04-27 08:37 | 50.59652 | 8.10260 | 39263 ft | 474 kts | 134° |
| 2026-04-27 08:37 | 50.55491 | 8.18363 | 39263 ft | 477 kts | 130° |
| 2026-04-27 08:38 | 50.51392 | 8.26594 | 39275 ft | 478 kts | 130° |
| 2026-04-27 08:38 | 50.47241 | 8.34789 | 39264 ft | 480 kts | 130° |
| 2026-04-27 08:39 | 50.43054 | 8.42966 | 39272 ft | 481 kts | 130° |
| 2026-04-27 08:39 | 50.38851 | 8.51153 | 39257 ft | 482 kts | 130° |
| 2026-04-27 08:40 | 50.34455 | 8.59072 | 39267 ft | 481 kts | 135° |
| 2026-04-27 08:40 | 50.29854 | 8.66676 | 39273 ft | 481 kts | 136° |
| 2026-04-27 08:41 | 50.25242 | 8.74251 | 39260 ft | 480 kts | 135° |
| 2026-04-27 08:41 | 50.20657 | 8.81840 | 39272 ft | 480 kts | 135° |
| 2026-04-27 08:42 | 50.16114 | 8.89379 | 39259 ft | 479 kts | 135° |
| 2026-04-27 08:42 | 50.11547 | 8.96945 | 39259 ft | 479 kts | 135° |
| 2026-04-27 08:43 | 50.06972 | 9.04499 | 39245 ft | 478 kts | 135° |
| 2026-04-27 08:43 | 50.02401 | 9.12019 | 39246 ft | 478 kts | 135° |
| 2026-04-27 08:44 | 49.97523 | 9.20021 | 39240 ft | 478 kts | 135° |
| 2026-04-27 08:44 | 49.93245 | 9.27017 | 39242 ft | 478 kts | 135° |
| 2026-04-27 08:45 | 49.88664 | 9.34487 | 39237 ft | 478 kts | 135° |
| 2026-04-27 08:45 | 49.84072 | 9.41954 | 39242 ft | 478 kts | 135° |
| 2026-04-27 08:46 | 49.79469 | 9.49417 | 39245 ft | 478 kts | 135° |
| 2026-04-27 08:46 | 49.74868 | 9.56855 | 39242 ft | 479 kts | 135° |
| 2026-04-27 08:47 | 49.70246 | 9.64304 | 39238 ft | 480 kts | 135° |
| 2026-04-27 08:47 | 49.65606 | 9.71760 | 39239 ft | 481 kts | 135° |
| 2026-04-27 08:48 | 49.60962 | 9.79202 | 39252 ft | 481 kts | 135° |
| 2026-04-27 08:48 | 49.56337 | 9.86592 | 39254 ft | 482 kts | 135° |
| 2026-04-27 08:49 | 49.51648 | 9.94062 | 39262 ft | 482 kts | 135° |
| 2026-04-27 08:49 | 49.46980 | 10.01476 | 39258 ft | 482 kts | 135° |
| 2026-04-27 08:50 | 49.42311 | 10.08871 | 39268 ft | 481 kts | 135° |
| 2026-04-27 08:50 | 49.37672 | 10.16197 | 39261 ft | 481 kts | 135° |
| 2026-04-27 08:51 | 49.33006 | 10.23546 | 39262 ft | 480 kts | 135° |
| 2026-04-27 08:51 | 49.28343 | 10.30872 | 39259 ft | 480 kts | 135° |
| 2026-04-27 08:52 | 49.23603 | 10.38046 | 39262 ft | 478 kts | 141° |
| 2026-04-27 08:52 | 49.18059 | 10.43585 | 39267 ft | 475 kts | 152° |
| 2026-04-27 08:53 | 49.12336 | 10.48641 | 39272 ft | 474 kts | 151° |
| 2026-04-27 08:53 | 49.06645 | 10.53737 | 39268 ft | 474 kts | 151° |
| 2026-04-27 08:54 | 49.00967 | 10.58881 | 39268 ft | 474 kts | 150° |
| 2026-04-27 08:54 | 48.95293 | 10.64020 | 39267 ft | 474 kts | 150° |
| 2026-04-27 08:55 | 48.89644 | 10.69118 | 39265 ft | 474 kts | 150° |
| 2026-04-27 08:55 | 48.83966 | 10.74226 | 39251 ft | 475 kts | 150° |
| 2026-04-27 08:56 | 48.78771 | 10.80407 | 39242 ft | 476 kts | 133° |
| 2026-04-27 08:56 | 48.74356 | 10.87899 | 39242 ft | 477 kts | 131° |
| 2026-04-27 08:57 | 48.67758 | 10.99169 | 39239 ft | 477 kts | 131° |
| 2026-04-27 08:58 | 48.63307 | 11.06625 | 39234 ft | 477 kts | 132° |
| 2026-04-27 08:58 | 48.58845 | 11.14047 | 39236 ft | 477 kts | 132° |
| 2026-04-27 08:59 | 48.54374 | 11.21462 | 39237 ft | 477 kts | 132° |
| 2026-04-27 08:59 | 48.49899 | 11.28868 | 39228 ft | 478 kts | 132° |
| 2026-04-27 09:00 | 48.47659 | 11.32568 | 39226 ft | 478 kts | 132° |
| 2026-04-27 09:00 | 48.44854 | 11.37195 | 39219 ft | 478 kts | 132° |
| 2026-04-27 09:01 | 48.40368 | 11.44578 | 39235 ft | 477 kts | 132° |
| 2026-04-27 09:01 | 48.35878 | 11.51946 | 39231 ft | 477 kts | 132° |
| 2026-04-27 09:02 | 48.31390 | 11.59292 | 39238 ft | 476 kts | 132° |
| 2026-04-27 09:02 | 48.26899 | 11.66621 | 39233 ft | 476 kts | 132° |
| 2026-04-27 09:03 | 48.22154 | 11.73535 | 39243 ft | 475 kts | 137° |
| 2026-04-27 09:03 | 48.17276 | 11.80115 | 39232 ft | 475 kts | 138° |
| 2026-04-27 09:04 | 48.12371 | 11.86733 | 39228 ft | 474 kts | 137° |
| 2026-04-27 09:04 | 48.07492 | 11.93372 | 39228 ft | 473 kts | 137° |
| 2026-04-27 09:05 | 48.02628 | 12.00002 | 39229 ft | 473 kts | 137° |
| 2026-04-27 09:05 | 47.97761 | 12.06623 | 39221 ft | 473 kts | 137° |
| 2026-04-27 09:06 | 47.92892 | 12.13223 | 39220 ft | 472 kts | 137° |
| 2026-04-27 09:06 | 47.88024 | 12.19804 | 39222 ft | 472 kts | 137° |
| 2026-04-27 09:07 | 47.83153 | 12.26371 | 39228 ft | 472 kts | 137° |
| 2026-04-27 09:07 | 47.78275 | 12.32931 | 39224 ft | 472 kts | 137° |
| 2026-04-27 09:08 | 47.73395 | 12.39477 | 39212 ft | 472 kts | 137° |
| 2026-04-27 09:08 | 47.68518 | 12.46003 | 39216 ft | 472 kts | 137° |
| 2026-04-27 09:09 | 47.63661 | 12.52485 | 39218 ft | 473 kts | 137° |
| 2026-04-27 09:09 | 47.58541 | 12.58616 | 39205 ft | 473 kts | 143° |
| 2026-04-27 09:10 | 47.53212 | 12.64344 | 39194 ft | 474 kts | 144° |
| 2026-04-27 09:10 | 47.47870 | 12.70057 | 39208 ft | 473 kts | 144° |
| 2026-04-27 09:11 | 47.42554 | 12.75803 | 39211 ft | 473 kts | 143° |
| 2026-04-27 09:11 | 47.37250 | 12.81564 | 39206 ft | 474 kts | 143° |
| 2026-04-27 09:12 | 47.31928 | 12.87339 | 39197 ft | 475 kts | 143° |
| 2026-04-27 09:12 | 47.26606 | 12.93097 | 39190 ft | 475 kts | 143° |
| 2026-04-27 09:13 | 47.21257 | 12.98868 | 39180 ft | 475 kts | 143° |
| 2026-04-27 09:13 | 47.15929 | 13.04599 | 39177 ft | 476 kts | 143° |
| 2026-04-27 09:14 | 47.10561 | 13.10361 | 39192 ft | 476 kts | 144° |
| 2026-04-27 09:14 | 47.05232 | 13.16063 | 39177 ft | 476 kts | 144° |
| 2026-04-27 09:15 | 46.99836 | 13.21825 | 39188 ft | 477 kts | 144° |
| 2026-04-27 09:15 | 46.94501 | 13.27505 | 39177 ft | 477 kts | 144° |
| 2026-04-27 09:16 | 46.89126 | 13.33215 | 39172 ft | 477 kts | 144° |
| 2026-04-27 09:16 | 46.83752 | 13.38909 | 39164 ft | 476 kts | 144° |
| 2026-04-27 09:17 | 46.78393 | 13.44573 | 39174 ft | 475 kts | 144° |
| 2026-04-27 09:17 | 46.73047 | 13.50209 | 39165 ft | 473 kts | 144° |
| 2026-04-27 09:18 | 46.67712 | 13.55820 | 39174 ft | 472 kts | 144° |
| 2026-04-27 09:18 | 46.62391 | 13.61401 | 39172 ft | 470 kts | 144° |
| 2026-04-27 09:19 | 46.57088 | 13.66950 | 39178 ft | 469 kts | 144° |
| 2026-04-27 09:19 | 46.51801 | 13.72470 | 39190 ft | 468 kts | 144° |
| 2026-04-27 09:20 | 46.46511 | 13.77978 | 39189 ft | 468 kts | 144° |
| 2026-04-27 09:20 | 46.41216 | 13.83478 | 39188 ft | 468 kts | 144° |
| 2026-04-27 09:21 | 46.35918 | 13.88969 | 39194 ft | 468 kts | 144° |
| 2026-04-27 09:21 | 46.30613 | 13.94452 | 39201 ft | 468 kts | 144° |
| 2026-04-27 09:22 | 46.25312 | 13.99919 | 39216 ft | 469 kts | 144° |
| 2026-04-27 09:22 | 46.19988 | 14.05396 | 39218 ft | 470 kts | 144° |
| 2026-04-27 09:23 | 46.14660 | 14.10863 | 39223 ft | 471 kts | 144° |
| 2026-04-27 09:23 | 46.09308 | 14.16342 | 39217 ft | 472 kts | 144° |
| 2026-04-27 09:24 | 46.03983 | 14.21780 | 39217 ft | 473 kts | 144° |
| 2026-04-27 09:24 | 45.98612 | 14.27252 | 39215 ft | 473 kts | 144° |
| 2026-04-27 09:25 | 45.93238 | 14.32714 | 39209 ft | 473 kts | 144° |
| 2026-04-27 09:25 | 45.87859 | 14.38167 | 39200 ft | 473 kts | 144° |
| 2026-04-27 09:26 | 45.82475 | 14.43614 | 39201 ft | 472 kts | 144° |
| 2026-04-27 09:26 | 45.77103 | 14.49034 | 39198 ft | 472 kts | 144° |
| 2026-04-27 09:27 | 45.71722 | 14.54450 | 39194 ft | 472 kts | 145° |
| 2026-04-27 09:27 | 45.66385 | 14.59811 | 39194 ft | 471 kts | 145° |
| 2026-04-27 09:28 | 45.61023 | 14.65183 | 39191 ft | 471 kts | 145° |
| 2026-04-27 09:28 | 45.55659 | 14.70547 | 39188 ft | 470 kts | 145° |
| 2026-04-27 09:29 | 45.50239 | 14.75756 | 39183 ft | 470 kts | 149° |
| 2026-04-27 09:29 | 45.44586 | 14.80420 | 39185 ft | 469 kts | 151° |
| 2026-04-27 09:30 | 45.38888 | 14.84977 | 39181 ft | 470 kts | 151° |
| 2026-04-27 09:30 | 45.33202 | 14.89570 | 39177 ft | 470 kts | 150° |
| 2026-04-27 09:31 | 45.27518 | 14.94202 | 39178 ft | 470 kts | 150° |
| 2026-04-27 09:31 | 45.21838 | 14.98834 | 39185 ft | 470 kts | 150° |
| 2026-04-27 09:32 | 45.16160 | 15.03453 | 39190 ft | 470 kts | 150° |
| 2026-04-27 09:32 | 45.10465 | 15.08073 | 38774 ft | 477 kts | 150° |
| 2026-04-27 09:32 | 45.07580 | 15.10409 | 38158 ft | 476 kts | 150° |
| 2026-04-27 09:33 | 45.04712 | 15.12729 | 37583 ft | 474 kts | 150° |
| 2026-04-27 09:33 | 45.01857 | 15.15035 | 36980 ft | 472 kts | 150° |
| 2026-04-27 09:33 | 44.99040 | 15.17308 | 36372 ft | 472 kts | 150° |
| 2026-04-27 09:33 | 44.96190 | 15.19604 | 35733 ft | 472 kts | 150° |
| 2026-04-27 09:34 | 44.93332 | 15.21906 | 35058 ft | 473 kts | 151° |
| 2026-04-27 09:34 | 44.90467 | 15.24208 | 34386 ft | 474 kts | 151° |
| 2026-04-27 09:34 | 44.87588 | 15.26521 | 33584 ft | 477 kts | 151° |
| 2026-04-27 09:34 | 44.84703 | 15.28835 | 32798 ft | 477 kts | 151° |
| 2026-04-27 09:35 | 44.81811 | 15.31152 | 32047 ft | 478 kts | 151° |
| 2026-04-27 09:35 | 44.78915 | 15.33470 | 31273 ft | 479 kts | 151° |
| 2026-04-27 09:35 | 44.76004 | 15.35797 | 30477 ft | 480 kts | 151° |
| 2026-04-27 09:35 | 44.73090 | 15.38123 | 29558 ft | 482 kts | 151° |
| 2026-04-27 09:36 | 44.70229 | 15.40406 | 28967 ft | 475 kts | 151° |
| 2026-04-27 09:36 | 44.67361 | 15.42691 | 28332 ft | 470 kts | 151° |
| 2026-04-27 09:36 | 44.64536 | 15.44940 | 27730 ft | 464 kts | 152° |
| 2026-04-27 09:36 | 44.61731 | 15.47170 | 27124 ft | 460 kts | 152° |
| 2026-04-27 09:37 | 44.58956 | 15.49373 | 26525 ft | 455 kts | 152° |
| 2026-04-27 09:37 | 44.56208 | 15.51552 | 25938 ft | 452 kts | 152° |
| 2026-04-27 09:37 | 44.53481 | 15.53712 | 25357 ft | 448 kts | 152° |
| 2026-04-27 09:37 | 44.50773 | 15.55855 | 24774 ft | 445 kts | 152° |
| 2026-04-27 09:38 | 44.48083 | 15.57981 | 24201 ft | 442 kts | 152° |
| 2026-04-27 09:38 | 44.45407 | 15.60094 | 23568 ft | 440 kts | 152° |
| 2026-04-27 09:38 | 44.42784 | 15.62163 | 22923 ft | 437 kts | 152° |
| 2026-04-27 09:38 | 44.40150 | 15.64239 | 22303 ft | 433 kts | 152° |
| 2026-04-27 09:39 | 44.37546 | 15.66289 | 21734 ft | 428 kts | 152° |
| 2026-04-27 09:39 | 44.34964 | 15.68320 | 21149 ft | 424 kts | 152° |
| 2026-04-27 09:39 | 44.32405 | 15.70329 | 20581 ft | 420 kts | 152° |
| 2026-04-27 09:39 | 44.29873 | 15.72316 | 20019 ft | 416 kts | 152° |
| 2026-04-27 09:40 | 44.27354 | 15.74291 | 19443 ft | 413 kts | 152° |
| 2026-04-27 09:40 | 44.24864 | 15.76241 | 18895 ft | 409 kts | 152° |
| 2026-04-27 09:40 | 44.22386 | 15.78180 | 18317 ft | 407 kts | 152° |
| 2026-04-27 09:40 | 44.19929 | 15.80103 | 17684 ft | 404 kts | 152° |
| 2026-04-27 09:41 | 44.17492 | 15.82008 | 17104 ft | 400 kts | 152° |
| 2026-04-27 09:41 | 44.15075 | 15.83893 | 16524 ft | 396 kts | 152° |
| 2026-04-27 09:41 | 44.12683 | 15.85749 | 15963 ft | 392 kts | 152° |
| 2026-04-27 09:41 | 44.11060 | 15.86952 | 15603 ft | 389 kts | 153° |
| 2026-04-27 09:42 | 44.08665 | 15.88669 | 15059 ft | 386 kts | 154° |
| 2026-04-27 09:42 | 44.06314 | 15.90331 | 14522 ft | 383 kts | 154° |
| 2026-04-27 09:42 | 44.03948 | 15.92005 | 13993 ft | 380 kts | 154° |
| 2026-04-27 09:42 | 44.01602 | 15.93673 | 13381 ft | 378 kts | 154° |
| 2026-04-27 09:43 | 43.99273 | 15.95333 | 12802 ft | 374 kts | 153° |
| 2026-04-27 09:43 | 43.96970 | 15.96980 | 12273 ft | 370 kts | 153° |
| 2026-04-27 09:43 | 43.94686 | 15.98614 | 11729 ft | 367 kts | 153° |
| 2026-04-27 09:43 | 43.92423 | 16.00231 | 11204 ft | 364 kts | 153° |
| 2026-04-27 09:44 | 43.90186 | 16.01827 | 10796 ft | 357 kts | 153° |
| 2026-04-27 09:44 | 43.88002 | 16.03320 | 10642 ft | 343 kts | 160° |
| 2026-04-27 09:44 | 43.85739 | 16.03918 | 10482 ft | 330 kts | 180° |
| 2026-04-27 09:44 | 43.83488 | 16.03534 | 10259 ft | 321 kts | 191° |
| 2026-04-27 09:45 | 43.81332 | 16.02934 | 10100 ft | 311 kts | 192° |
| 2026-04-27 09:45 | 43.79236 | 16.02356 | 9937 ft | 302 kts | 191° |
| 2026-04-27 09:45 | 43.77218 | 16.01808 | 9710 ft | 294 kts | 191° |
| 2026-04-27 09:45 | 43.75188 | 16.01268 | 9260 ft | 296 kts | 191° |
| 2026-04-27 09:46 | 43.73163 | 16.00735 | 8882 ft | 296 kts | 191° |
| 2026-04-27 09:46 | 43.71145 | 16.00208 | 8523 ft | 294 kts | 191° |
| 2026-04-27 09:46 | 43.69141 | 15.99685 | 8209 ft | 292 kts | 191° |
| 2026-04-27 09:46 | 43.67151 | 15.99166 | 7902 ft | 289 kts | 191° |
| 2026-04-27 09:47 | 43.65217 | 15.98662 | 7921 ft | 278 kts | 190° |
| 2026-04-27 09:47 | 43.63332 | 15.98172 | 7931 ft | 274 kts | 190° |
| 2026-04-27 09:47 | 43.61458 | 15.97684 | 7930 ft | 274 kts | 190° |
| 2026-04-27 09:47 | 43.59574 | 15.97193 | 7931 ft | 276 kts | 191° |
| 2026-04-27 09:48 | 43.57678 | 15.96700 | 7929 ft | 278 kts | 190° |
| 2026-04-27 09:48 | 43.55804 | 15.96213 | 7924 ft | 278 kts | 190° |
| 2026-04-27 09:48 | 43.53906 | 15.95720 | 7942 ft | 279 kts | 190° |
| 2026-04-27 09:48 | 43.52000 | 15.95226 | 7935 ft | 279 kts | 190° |
| 2026-04-27 09:49 | 43.50091 | 15.94725 | 7926 ft | 278 kts | 192° |
| 2026-04-27 09:49 | 43.48330 | 15.93656 | 7923 ft | 278 kts | 216° |
| 2026-04-27 09:49 | 43.46917 | 15.91847 | 7932 ft | 278 kts | 225° |
| 2026-04-27 09:49 | 43.45585 | 15.89925 | 7934 ft | 277 kts | 225° |
| 2026-04-27 09:50 | 43.44253 | 15.87999 | 7934 ft | 278 kts | 225° |
| 2026-04-27 09:50 | 43.42913 | 15.86086 | 7936 ft | 278 kts | 225° |
| 2026-04-27 09:50 | 43.41568 | 15.84183 | 7937 ft | 278 kts | 225° |
| 2026-04-27 09:50 | 43.40214 | 15.82275 | 7936 ft | 278 kts | 225° |
| 2026-04-27 09:51 | 43.38846 | 15.80362 | 7794 ft | 283 kts | 222° |
| 2026-04-27 09:51 | 43.37155 | 15.79094 | 7682 ft | 277 kts | 190° |
| 2026-04-27 09:51 | 43.35272 | 15.79190 | 7431 ft | 269 kts | 163° |
| 2026-04-27 09:51 | 43.33634 | 15.80381 | 6909 ft | 269 kts | 139° |
| 2026-04-27 09:52 | 43.32468 | 15.82345 | 6360 ft | 270 kts | 118° |
| 2026-04-27 09:52 | 43.31893 | 15.84824 | 5834 ft | 270 kts | 100° |
| 2026-04-27 09:52 | 43.31640 | 15.87339 | 5346 ft | 269 kts | 98° |
| 2026-04-27 09:52 | 43.31404 | 15.89883 | 5122 ft | 264 kts | 96° |
| 2026-04-27 09:53 | 43.31621 | 15.92329 | 5021 ft | 257 kts | 70° |
| 2026-04-27 09:53 | 43.32532 | 15.94381 | 4930 ft | 250 kts | 49° |
| 2026-04-27 09:53 | 43.33729 | 15.96064 | 4832 ft | 242 kts | 46° |
| 2026-04-27 09:53 | 43.34900 | 15.97665 | 4761 ft | 233 kts | 46° |
| 2026-04-27 09:54 | 43.36023 | 15.99214 | 4665 ft | 225 kts | 47° |
| 2026-04-27 09:54 | 43.37107 | 16.00722 | 4551 ft | 217 kts | 47° |
| 2026-04-27 09:54 | 43.38132 | 16.02153 | 4497 ft | 204 kts | 47° |
| 2026-04-27 09:54 | 43.39109 | 16.03521 | 4299 ft | 198 kts | 47° |
| 2026-04-27 09:55 | 43.40018 | 16.04868 | 4228 ft | 192 kts | 51° |
| 2026-04-27 09:55 | 43.40877 | 16.06307 | 3985 ft | 195 kts | 54° |
| 2026-04-27 09:55 | 43.42485 | 16.09179 | 3502 ft | 179 kts | 56° |
| 2026-04-27 09:56 | 43.43216 | 16.10500 | 3252 ft | 168 kts | 56° |
| 2026-04-27 09:56 | 43.43908 | 16.11754 | 3071 ft | 163 kts | 54° |
| 2026-04-27 09:56 | 43.44623 | 16.13002 | 2860 ft | 167 kts | 59° |
| 2026-04-27 09:56 | 43.45301 | 16.14299 | 2584 ft | 168 kts | 58° |
| 2026-04-27 09:57 | 43.45995 | 16.15531 | 2325 ft | 161 kts | 55° |
| 2026-04-27 09:57 | 43.46648 | 16.16711 | 2159 ft | 156 kts | 56° |
| 2026-04-27 09:57 | 43.47295 | 16.17884 | 1984 ft | 153 kts | 56° |
| 2026-04-27 09:57 | 43.47941 | 16.19052 | 1764 ft | 149 kts | 55° |
| 2026-04-27 09:58 | 43.48566 | 16.20181 | 1564 ft | 148 kts | 56° |
| 2026-04-27 09:58 | 43.49194 | 16.21320 | 1426 ft | 151 kts | 55° |
| 2026-04-27 09:58 | 43.49840 | 16.22480 | 1163 ft | 154 kts | 55° |
| 2026-04-27 09:58 | 43.50480 | 16.23640 | 954 ft | 146 kts | 54° |
| 2026-04-27 09:59 | 43.51087 | 16.24747 | 741 ft | 142 kts | 54° |
| 2026-04-27 09:59 | 43.51699 | 16.25830 | 568 ft | 146 kts | 53° |
| 2026-04-27 09:59 | 43.52313 | 16.26957 | 409 ft | 149 kts | 53° |
| 2026-04-27 09:59 | 43.52943 | 16.28075 | 215 ft | 147 kts | 54° |
| 2026-04-27 10:00 | 43.53535 | 16.29143 | 80 ft | 133 kts | 54° |
| 2026-04-27 10:00 | 43.53981 | 16.29950 | 66 ft | 73 kts | 52° |
| 2026-04-27 10:00 | 43.54193 | 16.30335 | 56 ft | 43 kts | 53° |
| 2026-04-27 10:00 | 43.54368 | 16.30649 | 52 ft | 41 kts | 52° |
| 2026-04-27 10:01 | 43.54515 | 16.30921 | 49 ft | 20 kts | 56° |
| 2026-04-27 10:01 | 43.54549 | 16.31036 | 52 ft | 11 kts | 69° |
| 2026-04-27 10:01 | 43.54585 | 16.31031 | 50 ft | 7 kts | 252° |
| 2026-04-27 10:01 | 43.54549 | 16.30973 | 49 ft | 11 kts | 227° |
| 2026-04-27 10:02 | 43.54484 | 16.30862 | 49 ft | 18 kts | 232° |
| 2026-04-27 10:02 | 43.54408 | 16.30729 | 51 ft | 17 kts | 231° |
| 2026-04-27 10:02 | 43.54337 | 16.30599 | 52 ft | 17 kts | 233° |
| 2026-04-27 10:02 | 43.54269 | 16.30473 | 55 ft | 16 kts | 233° |
| 2026-04-27 10:03 | 43.54200 | 16.30349 | 52 ft | 17 kts | 232° |
| 2026-04-27 10:03 | 43.54125 | 16.30216 | 60 ft | 17 kts | 233° |
| 2026-04-27 10:03 | 43.54040 | 16.30112 | 63 ft | 17 kts | 197° |
| 2026-04-27 10:03 | 43.53931 | 16.30071 | 67 ft | 13 kts | 200° |
| 2026-04-27 10:04 | 43.53868 | 16.29992 | 67 ft | 12 kts | 231° |
| 2026-04-27 10:04 | 43.53825 | 16.29914 | 65 ft | 8 kts | 232° |
| 2026-04-27 10:04 | 43.53799 | 16.29868 | 67 ft | 5 kts | 222° |
| 2026-04-27 10:04 | 43.53776 | 16.29873 | 67 ft | 2 kts | 139° |
| 2026-04-27 10:05 | 43.53774 | 16.29896 | 65 ft | 3 kts | 94° |
| 2026-04-27 10:05 | 43.53768 | 16.29921 | 67 ft | 2 kts | 112° |
| 2026-04-27 10:05 | 43.53766 | 16.29927 | 67 ft | 1 kts | 112° |
| 2026-04-27 10:05 | 43.53763 | 16.29937 | 66 ft | 1 kts | 113° |
| 2026-04-27 10:06 | 43.53761 | 16.29943 | 63 ft | 0 kts | 114° |